Time;durP1;ratioP1;P1;durP2;ratioP2;P2;SDS_P1;SDS_P2;PMS_P1;PMS_P2;Temp;Humidity;BMP_temperature;BMP_pressure;BME280_temperature;BME280_humidity;BME280_pressure;Samples;Min_cycle;Max_cycle;Signal;HPM_P1;HPM_P2
2022/05/15 00:01:44;;;;;;;10.25;6.78;;;14.50;99.90;;;;;;5050746;28;20261;-72
2022/05/15 00:04:10;;;;;;;8.85;4.40;;;14.50;99.90;;;;;;5050544;28;20618;-72
2022/05/15 00:06:35;;;;;;;9.85;4.15;;;14.50;99.90;;;;;;5050690;28;20211;-71
2022/05/15 00:09:01;;;;;;;13.27;5.28;;;14.50;99.90;;;;;;5049768;28;20211;-71
2022/05/15 00:11:27;;;;;;;13.05;5.30;;;14.40;99.90;;;;;;5051038;28;20552;-72
2022/05/15 00:13:52;;;;;;;10.52;4.63;;;14.40;99.90;;;;;;5050416;28;20587;-72
2022/05/15 00:16:19;;;;;;;9.05;4.57;;;14.50;99.90;;;;;;5050513;28;20200;-72
2022/05/15 00:18:44;;;;;;;8.80;3.50;;;14.40;99.90;;;;;;5050488;28;20207;-71
2022/05/15 00:21:11;;;;;;;9.57;3.97;;;14.40;99.90;;;;;;5036615;28;20666;-72
2022/05/15 00:23:37;;;;;;;8.35;4.05;;;14.30;99.90;;;;;;5054393;28;20258;-70
2022/05/15 00:26:02;;;;;;;7.05;3.60;;;14.20;99.90;;;;;;5037083;28;20195;-71
2022/05/15 00:28:28;;;;;;;7.28;3.35;;;14.20;99.90;;;;;;5053478;28;20280;-71
2022/05/15 00:30:53;;;;;;;10.23;3.50;;;14.10;99.90;;;;;;5054326;28;20757;-71
2022/05/15 00:33:19;;;;;;;5.65;3.05;;;14.10;99.90;;;;;;5054368;28;20238;-71
2022/05/15 00:35:44;;;;;;;8.33;3.93;;;14.10;99.90;;;;;;5053934;28;20211;-71
2022/05/15 00:38:11;;;;;;;7.03;3.60;;;14.10;99.90;;;;;;5053869;28;20212;-71
2022/05/15 00:40:39;;;;;;;10.23;3.27;;;14.10;99.90;;;;;;5036354;28;20214;-71
2022/05/15 00:43:10;;;;;;;7.20;3.10;;;14.10;99.90;;;;;;5053937;28;20262;-70
2022/05/15 00:45:35;;;;;;;7.43;2.60;;;14.10;99.90;;;;;;5053824;28;20718;-70
2022/05/15 00:48:01;;;;;;;11.52;3.33;;;14.00;99.90;;;;;;5053365;28;20229;-71
2022/05/15 00:50:36;;;;;;;13.47;3.70;;;14.00;99.90;;;;;;5054609;28;20548;-70
2022/05/15 00:53:07;;;;;;;5.60;2.80;;;14.00;99.90;;;;;;5054683;28;20206;-71
2022/05/15 00:55:49;;;;;;;6.78;3.40;;;13.90;99.90;;;;;;5053758;28;20207;-71
2022/05/15 00:58:32;;;;;;;11.90;3.40;;;13.90;99.90;;;;;;5053055;28;20607;-71
2022/05/15 01:00:58;;;;;;;10.70;3.47;;;13.90;99.90;;;;;;5053896;28;20741;-72
2022/05/15 01:03:23;;;;;;;10.60;3.63;;;13.80;99.90;;;;;;5035923;28;20298;-72
2022/05/15 01:05:54;;;;;;;8.50;2.92;;;13.80;99.90;;;;;;5053670;28;20223;-71
2022/05/15 01:08:22;;;;;;;8.00;2.88;;;13.90;99.90;;;;;;5053544;28;20188;-71
2022/05/15 01:10:50;;;;;;;7.22;3.05;;;13.90;99.90;;;;;;5053594;28;20200;-71
2022/05/15 01:13:17;;;;;;;8.50;3.88;;;13.80;99.90;;;;;;5053576;28;20211;-71
2022/05/15 01:15:45;;;;;;;12.07;4.93;;;13.70;99.90;;;;;;5053415;28;20229;-72
2022/05/15 01:18:10;;;;;;;10.30;4.07;;;13.70;99.90;;;;;;5053107;28;20238;-71
2022/05/15 01:20:38;;;;;;;13.75;4.00;;;13.70;99.90;;;;;;5053672;28;20215;-71
2022/05/15 01:23:04;;;;;;;6.97;3.30;;;13.60;99.90;;;;;;5036964;28;20629;-71
2022/05/15 01:25:32;;;;;;;11.63;3.60;;;13.70;99.90;;;;;;5054201;28;20211;-71
2022/05/15 01:28:10;;;;;;;9.53;3.43;;;13.70;99.90;;;;;;5036133;28;20210;-72
2022/05/15 01:30:38;;;;;;;7.43;3.17;;;13.60;99.90;;;;;;5035202;28;20261;-72
2022/05/15 01:33:04;;;;;;;8.27;3.67;;;13.60;99.90;;;;;;5054255;28;20558;-72
2022/05/15 01:35:30;;;;;;;8.37;3.70;;;13.60;99.90;;;;;;5054094;28;20223;-71
2022/05/15 01:37:55;;;;;;;10.17;3.63;;;13.60;99.90;;;;;;5052973;28;20287;-71
2022/05/15 01:40:21;;;;;;;8.43;3.83;;;13.60;99.90;;;;;;5052571;28;20672;-71
2022/05/15 01:42:47;;;;;;;10.07;4.17;;;13.50;99.90;;;;;;5052994;28;20252;-72
2022/05/15 01:45:14;;;;;;;9.90;5.00;;;13.50;99.90;;;;;;5053246;28;20215;-71
2022/05/15 01:47:39;;;;;;;9.73;4.03;;;13.50;99.90;;;;;;5052621;28;20270;-71
2022/05/15 01:50:06;;;;;;;9.03;4.00;;;13.50;99.90;;;;;;5052766;28;20307;-73
2022/05/15 01:52:32;;;;;;;10.03;3.97;;;13.40;99.90;;;;;;5052726;28;20200;-72
2022/05/15 01:54:57;;;;;;;8.13;3.60;;;13.40;99.90;;;;;;5052786;28;20208;-73
2022/05/15 01:57:23;;;;;;;8.47;3.77;;;13.40;99.90;;;;;;5052442;28;20223;-73
2022/05/15 01:59:48;;;;;;;7.47;3.63;;;13.50;99.90;;;;;;5052058;28;20202;-72
2022/05/15 02:02:15;;;;;;;5.83;3.20;;;13.40;99.90;;;;;;5053254;28;20176;-72
2022/05/15 02:04:40;;;;;;;12.23;3.77;;;13.40;99.90;;;;;;5052466;28;21782;-72
2022/05/15 02:07:06;;;;;;;6.13;3.03;;;13.40;99.90;;;;;;5057125;28;20196;-73
2022/05/15 02:09:32;;;;;;;12.33;3.40;;;13.40;99.90;;;;;;5059505;28;20207;-73
2022/05/15 02:11:59;;;;;;;9.67;3.27;;;13.40;99.90;;;;;;5057995;28;20211;-72
2022/05/15 02:14:25;;;;;;;6.97;3.13;;;13.40;99.90;;;;;;5057423;28;20225;-72
2022/05/15 02:16:50;;;;;;;7.50;3.23;;;13.40;99.90;;;;;;5052533;28;20195;-71
2022/05/15 02:19:16;;;;;;;7.20;3.40;;;13.40;99.90;;;;;;5051728;28;20207;-71
2022/05/15 02:21:42;;;;;;;8.83;3.40;;;13.30;99.90;;;;;;5052171;28;20282;-71
2022/05/15 02:24:08;;;;;;;11.05;3.80;;;13.30;99.90;;;;;;5052345;28;20214;-72
2022/05/15 02:26:33;;;;;;;9.30;4.60;;;13.30;99.90;;;;;;5052033;28;20183;-72
2022/05/15 02:28:59;;;;;;;9.53;4.10;;;13.30;99.90;;;;;;5052124;28;20262;-71
2022/05/15 02:31:24;;;;;;;9.90;4.27;;;13.30;99.90;;;;;;5034143;28;20289;-71
2022/05/15 02:33:50;;;;;;;11.13;4.80;;;13.30;99.90;;;;;;5051950;28;20203;-72
2022/05/15 02:36:15;;;;;;;8.60;4.67;;;13.20;99.90;;;;;;5045991;28;20219;-71
2022/05/15 02:38:41;;;;;;;8.37;4.10;;;13.20;99.90;;;;;;5050930;28;20211;-72
2022/05/15 02:41:06;;;;;;;6.40;4.10;;;13.20;99.90;;;;;;5034289;28;20167;-72
2022/05/15 02:43:32;;;;;;;10.20;4.73;;;13.20;99.90;;;;;;5051153;28;20810;-71
2022/05/15 02:45:57;;;;;;;8.87;3.97;;;13.10;99.90;;;;;;5051738;28;20227;-72
2022/05/15 02:51:08;;;;;;;9.27;4.43;;;13.00;99.90;;;;;;5051851;28;20639;-72
2022/05/15 02:53:45;;;;;;;9.80;4.40;;;13.00;99.90;;;;;;5051509;28;20225;-71
2022/05/15 02:56:22;;;;;;;9.47;4.13;;;13.00;99.90;;;;;;5034120;28;20278;-71
2022/05/15 02:58:48;;;;;;;10.43;4.60;;;13.00;99.90;;;;;;5042876;28;20207;-72
2022/05/15 03:01:14;;;;;;;10.33;4.57;;;13.00;99.90;;;;;;5051451;28;20210;-72
2022/05/15 03:03:40;;;;;;;10.17;4.23;;;13.00;99.90;;;;;;5033272;28;20219;-72
2022/05/15 03:06:06;;;;;;;9.97;4.47;;;13.00;99.90;;;;;;5051100;28;20282;-72
2022/05/15 03:08:37;;;;;;;9.03;3.87;;;13.00;99.90;;;;;;5050370;28;20264;-72
2022/05/15 03:11:03;;;;;;;11.20;4.83;;;12.90;99.90;;;;;;5051789;28;20215;-72
2022/05/15 03:13:28;;;;;;;9.53;4.13;;;12.90;99.90;;;;;;5051102;28;20585;-72
2022/05/15 03:15:54;;;;;;;8.10;3.97;;;13.00;99.90;;;;;;5051161;28;20249;-72
2022/05/15 03:18:20;;;;;;;8.30;3.77;;;12.90;99.90;;;;;;5032380;28;20299;-72
2022/05/15 03:20:45;;;;;;;9.63;4.33;;;12.80;99.90;;;;;;5050990;28;20168;-72
2022/05/15 03:23:13;;;;;;;8.70;4.20;;;12.80;99.90;;;;;;5051537;28;20211;-72
2022/05/15 03:25:39;;;;;;;9.87;3.83;;;12.90;99.90;;;;;;5032919;28;20294;-71
2022/05/15 03:28:09;;;;;;;9.13;4.10;;;12.90;99.90;;;;;;5050363;28;20627;-72
2022/05/15 03:30:36;;;;;;;9.63;4.00;;;13.00;99.90;;;;;;5050829;28;20211;-72
2022/05/15 03:33:01;;;;;;;6.67;3.53;;;13.10;99.90;;;;;;5032945;28;20231;-72
2022/05/15 03:35:27;;;;;;;7.17;3.63;;;13.00;99.90;;;;;;5032761;28;20253;-72
2022/05/15 03:37:52;;;;;;;6.40;3.57;;;13.10;99.90;;;;;;5050472;28;20207;-72
2022/05/15 03:40:18;;;;;;;7.73;3.47;;;13.10;99.90;;;;;;5032558;28;20799;-72
2022/05/15 03:42:43;;;;;;;13.90;3.93;;;13.30;99.90;;;;;;5050572;28;20277;-72
2022/05/15 03:45:10;;;;;;;5.23;3.00;;;13.50;99.90;;;;;;5051002;28;20215;-72
2022/05/15 03:47:36;;;;;;;7.10;3.33;;;13.60;99.90;;;;;;5032678;28;20202;-72
2022/05/15 03:50:04;;;;;;;5.53;2.87;;;13.80;99.90;;;;;;5050504;28;20171;-72
2022/05/15 03:52:30;;;;;;;6.93;3.10;;;13.90;99.90;;;;;;5050300;28;20252;-72
2022/05/15 03:54:56;;;;;;;9.37;3.33;;;14.70;99.90;;;;;;5049848;28;20200;-72
2022/05/15 03:57:21;;;;;;;7.68;3.53;;;16.50;99.90;;;;;;5032490;28;20210;-71
2022/05/15 03:59:46;;;;;;;6.47;2.72;;;17.80;99.90;;;;;;5049879;28;20223;-72
2022/05/15 04:02:12;;;;;;;7.72;2.83;;;19.00;99.90;;;;;;5051098;28;20190;-72
2022/05/15 04:04:38;;;;;;;7.45;2.55;;;20.30;99.90;;;;;;5050250;28;20207;-71
2022/05/15 04:07:05;;;;;;;8.40;2.75;;;21.00;99.90;;;;;;5050392;28;20283;-72
2022/05/15 04:09:32;;;;;;;6.55;2.95;;;21.60;99.90;;;;;;5049613;28;20691;-72
2022/05/15 04:11:58;;;;;;;5.22;2.58;;;22.20;99.90;;;;;;5050623;28;20642;-72
2022/05/15 04:14:24;;;;;;;6.07;2.30;;;22.50;99.90;;;;;;5033086;28;20221;-72
2022/05/15 04:16:50;;;;;;;8.05;2.95;;;23.60;99.90;;;;;;5050687;28;20573;-72
2022/05/15 04:19:15;;;;;;;5.72;2.50;;;24.10;99.90;;;;;;5049666;28;20245;-72
2022/05/15 04:21:41;;;;;;;8.00;3.05;;;24.40;99.90;;;;;;5032382;28;20211;-73
2022/05/15 04:24:11;;;;;;;5.13;2.60;;;25.10;99.90;;;;;;5050459;28;20291;-73
2022/05/15 04:26:38;;;;;;;7.40;2.90;;;25.40;99.90;;;;;;5050302;28;20179;-73
2022/05/15 04:29:05;;;;;;;4.40;2.17;;;25.10;99.90;;;;;;5050152;28;20178;-72
2022/05/15 04:31:30;;;;;;;4.95;2.40;;;25.10;99.90;;;;;;5032147;28;20203;-73
2022/05/15 04:33:56;;;;;;;6.03;2.25;;;24.50;99.90;;;;;;5050445;28;20623;-73
2022/05/15 04:36:22;;;;;;;8.02;2.90;;;22.80;99.90;;;;;;5030149;28;20231;-72
2022/05/15 04:38:48;;;;;;;6.07;2.42;;;23.70;99.90;;;;;;5049583;28;20204;-73
2022/05/15 04:41:13;;;;;;;5.43;2.63;;;25.50;99.90;;;;;;5050458;28;20229;-72
2022/05/15 04:43:39;;;;;;;6.05;2.50;;;25.90;99.90;;;;;;5032100;28;20684;-73
2022/05/15 04:46:07;;;;;;;6.90;2.67;;;26.60;99.90;;;;;;5050026;28;20203;-73
2022/05/15 04:48:33;;;;;;;5.30;2.80;;;27.70;99.00;;;;;;5049208;28;20707;-73
2022/05/15 04:50:59;;;;;;;3.95;2.30;;;28.70;97.00;;;;;;5050128;28;20215;-73
2022/05/15 04:53:27;;;;;;;5.90;2.88;;;28.60;95.80;;;;;;5048684;28;20584;-73
2022/05/15 04:55:53;;;;;;;5.88;2.47;;;28.60;94.90;;;;;;5032402;28;20692;-73
2022/05/15 04:58:18;;;;;;;4.18;2.45;;;29.10;93.90;;;;;;5049718;28;20294;-73
2022/05/15 05:00:44;;;;;;;5.10;2.28;;;29.40;92.70;;;;;;5049901;28;20279;-72
2022/05/15 05:03:09;;;;;;;6.60;2.63;;;29.20;92.60;;;;;;5050100;28;20238;-73
2022/05/15 05:05:35;;;;;;;5.13;2.70;;;30.10;91.50;;;;;;5051801;28;20301;-73
2022/05/15 05:08:00;;;;;;;4.63;2.50;;;29.80;90.80;;;;;;5053535;28;20173;-72
2022/05/15 05:10:26;;;;;;;5.32;2.60;;;29.90;90.60;;;;;;5053410;28;20254;-73
2022/05/15 05:12:51;;;;;;;4.60;2.50;;;29.80;90.20;;;;;;5053814;28;20282;-73
2022/05/15 05:15:17;;;;;;;5.72;2.08;;;29.30;90.30;;;;;;5053431;28;20215;-73
2022/05/15 05:17:43;;;;;;;7.13;2.55;;;28.70;90.80;;;;;;5052831;28;20222;-73
2022/05/15 05:20:11;;;;;;;7.47;2.80;;;29.70;90.40;;;;;;5053598;28;20199;-73
2022/05/15 05:22:36;;;;;;;5.55;2.33;;;30.40;88.80;;;;;;5053526;28;20599;-73
2022/05/15 05:25:02;;;;;;;6.35;2.58;;;30.40;87.50;;;;;;5035513;28;20262;-73
2022/05/15 05:27:28;;;;;;;3.38;1.73;;;31.10;86.20;;;;;;5053246;28;20571;-73
2022/05/15 05:29:53;;;;;;;3.75;1.88;;;30.10;85.60;;;;;;5034772;28;20210;-73
2022/05/15 05:32:19;;;;;;;4.40;1.90;;;30.00;85.70;;;;;;5054235;28;20556;-73
2022/05/15 05:34:44;;;;;;;6.88;1.95;;;29.70;85.60;;;;;;5052928;28;20282;-73
2022/05/15 05:37:10;;;;;;;3.10;2.00;;;30.00;86.20;;;;;;5117113;22;20725;-71
2022/05/15 05:39:35;;;;;;;3.58;2.05;;;31.40;83.90;;;;;;5096797;28;20228;-71
2022/05/15 05:42:01;;;;;;;4.30;1.60;;;31.60;80.60;;;;;;5113755;28;20204;-71
2022/05/15 05:44:26;;;;;;;2.00;1.33;;;30.50;81.30;;;;;;5129729;27;20180;-71
2022/05/15 05:46:52;;;;;;;3.45;1.67;;;31.00;81.20;;;;;;5128084;27;20341;-70
2022/05/15 05:49:17;;;;;;;4.85;3.97;;;31.60;79.40;;;;;;5133327;27;20206;-71
2022/05/15 05:51:44;;;;;;;4.80;1.95;;;31.10;78.20;;;;;;5132089;27;20208;-71
2022/05/15 05:54:10;;;;;;;6.10;1.90;;;31.00;78.40;;;;;;5123928;27;20200;-71
2022/05/15 05:56:35;;;;;;;4.85;1.88;;;30.20;80.00;;;;;;5134062;27;20224;-71
2022/05/15 05:59:01;;;;;;;3.33;1.42;;;30.70;79.60;;;;;;5133618;27;20246;-71
2022/05/15 06:01:26;;;;;;;3.80;2.00;;;30.80;79.30;;;;;;5133985;27;20207;-71
2022/05/15 06:06:36;;;;;;;2.42;1.40;;;30.60;79.10;;;;;;5133608;27;20299;-70
2022/05/15 06:09:01;;;;;;;3.83;1.80;;;30.30;78.40;;;;;;5132805;27;20283;-70
2022/05/15 06:11:27;;;;;;;4.55;1.70;;;30.60;78.60;;;;;;5115802;27;20586;-70
2022/05/15 06:13:52;;;;;;;6.30;2.58;;;30.70;78.10;;;;;;5133638;27;20193;-70
2022/05/15 06:16:18;;;;;;;4.00;1.63;;;30.60;76.90;;;;;;5132739;27;20251;-71
2022/05/15 06:18:44;;;;;;;4.63;2.00;;;30.40;77.30;;;;;;5132423;27;20209;-70
2022/05/15 06:21:10;;;;;;;4.35;1.40;;;30.40;78.70;;;;;;5114860;27;20248;-72
2022/05/15 06:23:35;;;;;;;3.08;1.60;;;30.70;76.90;;;;;;5120937;27;20184;-72
2022/05/15 06:26:01;;;;;;;4.70;1.60;;;30.30;77.40;;;;;;5133627;27;20677;-72
2022/05/15 06:28:29;;;;;;;3.38;1.58;;;30.50;77.70;;;;;;5132498;27;20199;-72
2022/05/15 06:30:54;;;;;;;4.57;1.52;;;30.00;76.90;;;;;;5133154;27;20197;-72
2022/05/15 06:33:20;;;;;;;3.22;1.75;;;31.10;75.30;;;;;;5133193;27;20212;-72
2022/05/15 06:35:45;;;;;;;4.20;1.92;;;30.30;76.10;;;;;;5114355;27;20212;-72
2022/05/15 06:38:11;;;;;;;4.75;1.55;;;30.20;76.60;;;;;;5132730;27;20189;-72
2022/05/15 06:40:36;;;;;;;2.88;1.52;;;30.80;76.30;;;;;;5132908;27;20197;-72
2022/05/15 06:43:02;;;;;;;4.72;1.95;;;31.10;75.30;;;;;;5133103;27;20279;-72
2022/05/15 06:45:28;;;;;;;3.97;1.83;;;32.10;74.60;;;;;;5132488;27;20211;-72
2022/05/15 06:47:54;;;;;;;4.05;1.48;;;30.90;73.80;;;;;;5114217;27;20668;-72
2022/05/15 06:50:20;;;;;;;2.03;1.30;;;31.70;73.90;;;;;;5114611;27;20199;-72
2022/05/15 06:52:45;;;;;;;2.33;1.30;;;31.40;72.70;;;;;;5102086;27;20210;-72
2022/05/15 06:55:15;;;;;;;3.28;1.80;;;31.40;73.00;;;;;;5132820;27;20587;-72
2022/05/15 06:57:42;;;;;;;2.88;1.42;;;31.80;72.40;;;;;;5113680;27;20266;-71
2022/05/15 07:00:14;;;;;;;6.50;2.42;;;31.20;72.90;;;;;;5132213;27;20223;-72
2022/05/15 07:02:41;;;;;;;4.53;1.80;;;31.60;70.90;;;;;;5113921;27;20187;-72
2022/05/15 07:05:09;;;;;;;3.47;1.33;;;30.70;72.20;;;;;;5132826;27;20255;-72
2022/05/15 07:07:34;;;;;;;4.10;1.77;;;31.90;71.20;;;;;;5113792;27;20555;-72
2022/05/15 07:09:59;;;;;;;5.18;1.67;;;32.40;69.20;;;;;;5131864;27;20211;-72
2022/05/15 07:12:25;;;;;;;3.00;1.60;;;31.60;70.30;;;;;;5132195;27;20210;-72
2022/05/15 07:14:51;;;;;;;3.28;1.48;;;32.20;70.50;;;;;;5132371;27;20618;-72
2022/05/15 07:17:16;;;;;;;1.95;1.25;;;32.70;69.30;;;;;;5114488;27;20791;-72
2022/05/15 07:19:42;;;;;;;4.38;1.63;;;31.80;69.70;;;;;;5131168;27;20237;-72
2022/05/15 07:22:09;;;;;;;3.25;1.88;;;31.50;70.40;;;;;;5105331;28;20209;-72
2022/05/15 07:24:36;;;;;;;3.95;1.98;;;31.70;69.50;;;;;;5129124;27;20207;-72
2022/05/15 07:27:02;;;;;;;5.88;2.38;;;32.10;69.40;;;;;;5131991;27;20591;-72
2022/05/15 07:29:27;;;;;;;3.13;1.50;;;31.20;69.70;;;;;;5131826;27;20172;-72
2022/05/15 07:31:54;;;;;;;2.45;1.58;;;30.80;69.80;;;;;;5132149;27;20212;-72
2022/05/15 07:34:20;;;;;;;4.03;1.80;;;31.30;69.50;;;;;;5113545;27;20230;-72
2022/05/15 07:36:50;;;;;;;4.25;1.70;;;31.40;69.60;;;;;;5131663;27;20220;-72
2022/05/15 07:39:16;;;;;;;3.05;1.80;;;32.10;69.00;;;;;;5131227;27;20231;-72
2022/05/15 07:41:41;;;;;;;3.63;1.67;;;32.90;67.50;;;;;;5113504;27;20180;-72
2022/05/15 07:44:07;;;;;;;5.28;1.80;;;33.70;66.70;;;;;;5114032;27;20557;-72
2022/05/15 07:46:32;;;;;;;4.95;1.80;;;34.30;65.30;;;;;;5131620;27;20282;-72
2022/05/15 07:48:58;;;;;;;3.13;1.70;;;33.10;65.80;;;;;;5131063;27;20207;-72
2022/05/15 07:51:24;;;;;;;4.38;1.50;;;33.90;65.80;;;;;;5131703;27;20200;-72
2022/05/15 07:53:49;;;;;;;3.40;1.55;;;33.00;65.70;;;;;;5119580;27;20672;-72
2022/05/15 07:56:15;;;;;;;3.83;1.80;;;32.70;65.50;;;;;;5132304;27;20261;-72
2022/05/15 07:58:41;;;;;;;4.38;2.15;;;32.40;66.70;;;;;;5130944;28;20298;-73
2022/05/15 08:01:07;;;;;;;3.60;2.08;;;31.80;67.50;;;;;;5131838;28;20588;-73
2022/05/15 08:03:37;;;;;;;6.10;3.80;;;30.60;69.20;;;;;;5131646;28;20204;-73
2022/05/15 08:08:47;;;;;;;4.72;3.17;;;31.60;67.70;;;;;;5131499;28;20179;-76
2022/05/15 08:11:13;;;;;;;3.42;2.00;;;31.70;66.90;;;;;;5132706;28;20168;-75
2022/05/15 08:13:38;;;;;;;3.20;1.60;;;30.90;68.10;;;;;;5113129;28;20231;-75
2022/05/15 08:16:04;;;;;;;2.92;1.23;;;31.60;67.70;;;;;;5113320;28;20586;-76
2022/05/15 08:24:00;;;;;;;3.42;1.42;;;30.80;68.10;;;;;;5119265;28;20234;-73
2022/05/15 08:26:27;;;;;;;4.38;1.52;;;30.80;69.00;;;;;;5131434;28;20197;-70
2022/05/15 08:28:53;;;;;;;3.58;1.90;;;31.10;68.90;;;;;;5130948;28;20204;-74
2022/05/15 08:31:20;;;;;;;5.38;2.30;;;31.80;67.40;;;;;;5111339;28;20381;-72
2022/05/15 08:33:47;;;;;;;3.17;1.20;;;31.90;67.40;;;;;;5131271;28;20304;-73
2022/05/15 08:36:13;;;;;;;3.50;1.50;;;31.90;67.00;;;;;;5112629;28;20278;-72
2022/05/15 08:38:39;;;;;;;2.53;1.30;;;31.70;66.60;;;;;;5130570;28;20657;-74
2022/05/15 08:41:21;;;;;;;2.83;1.48;;;30.80;67.10;;;;;;5134898;27;20525;-72
2022/05/15 08:43:55;;;;;;;2.40;1.30;;;31.10;67.80;;;;;;5135440;27;20220;-73
2022/05/15 08:46:36;;;;;;;1.73;1.10;;;31.00;65.80;;;;;;5135599;27;20208;-71
2022/05/15 08:49:19;;;;;;;2.97;1.65;;;30.40;66.50;;;;;;5116154;27;20246;-71
2022/05/15 08:51:59;;;;;;;2.67;1.48;;;30.40;63.70;;;;;;5132689;27;20200;-72
2022/05/15 08:54:26;;;;;;;3.78;1.65;;;29.60;65.70;;;;;;5110508;27;20208;-72
2022/05/15 08:56:52;;;;;;;2.97;1.20;;;29.40;68.40;;;;;;5135115;27;20209;-72
2022/05/15 08:59:25;;;;;;;2.47;1.25;;;29.50;67.30;;;;;;5134630;27;20189;-72
2022/05/15 09:01:55;;;;;;;1.95;1.15;;;30.10;66.50;;;;;;5113748;27;20196;-73
2022/05/15 09:04:22;;;;;;;1.75;1.25;;;30.00;65.80;;;;;;5134789;27;20193;-72
2022/05/15 09:06:52;;;;;;;1.67;1.00;;;29.50;66.50;;;;;;5122014;27;20270;-74
2022/05/15 09:09:28;;;;;;;3.40;1.25;;;29.70;65.60;;;;;;5128396;27;20196;-73
2022/05/15 09:12:06;;;;;;;2.85;1.10;;;29.90;64.80;;;;;;5134055;27;20200;-75
2022/05/15 09:14:50;;;;;;;3.35;0.95;;;30.00;64.40;;;;;;5133978;27;20177;-70
2022/05/15 09:17:21;;;;;;;2.42;0.98;;;30.00;65.00;;;;;;5134798;27;20683;-70
2022/05/15 09:20:02;;;;;;;2.10;0.85;;;29.70;67.00;;;;;;5133780;27;20212;-70
2022/05/15 09:22:36;;;;;;;1.83;0.85;;;29.30;67.00;;;;;;5122068;27;20198;-73
2022/05/15 09:25:07;;;;;;;2.92;1.00;;;28.70;67.70;;;;;;5115574;27;20197;-72
2022/05/15 09:27:32;;;;;;;8.38;4.45;;;28.20;68.10;;;;;;5134513;27;20288;-72
2022/05/15 09:30:01;;;;;;;2.92;1.30;;;28.20;67.10;;;;;;5133561;27;20236;-73
2022/05/15 09:32:30;;;;;;;7.88;4.47;;;27.70;68.20;;;;;;5134790;27;20180;-73
2022/05/15 09:35:01;;;;;;;3.03;1.10;;;27.30;69.50;;;;;;5130091;27;20228;-73
2022/05/15 09:40:19;;;;;;;4.75;1.27;;;26.90;70.50;;;;;;5114828;27;20299;-74
2022/05/15 09:45:48;;;;;;;2.67;1.20;;;26.60;71.20;;;;;;5133775;27;20258;-74
2022/05/15 09:48:13;;;;;;;2.75;0.80;;;26.20;70.60;;;;;;5134360;27;20205;-73
2022/05/15 09:50:48;;;;;;;4.95;0.70;;;26.10;70.80;;;;;;5133344;27;20180;-72
2022/05/15 09:53:32;;;;;;;1.85;0.60;;;25.90;69.10;;;;;;5121409;27;20194;-74
2022/05/15 09:56:13;;;;;;;1.17;0.60;;;25.10;69.40;;;;;;5126729;27;20688;-74
2022/05/15 09:59:08;;;;;;;1.45;0.70;;;24.60;69.90;;;;;;5133310;27;20310;-74
2022/05/15 10:01:56;;;;;;;3.08;0.70;;;24.70;72.20;;;;;;5114856;27;20205;-73
2022/05/15 10:04:25;;;;;;;3.17;1.00;;;25.20;71.60;;;;;;5133637;27;20207;-70
2022/05/15 10:06:58;;;;;;;2.00;1.08;;;25.50;71.70;;;;;;5133308;27;20197;-70
2022/05/15 10:09:32;;;;;;;1.75;0.70;;;25.90;72.40;;;;;;5132661;27;20279;-70
2022/05/15 10:12:06;;;;;;;2.10;0.70;;;25.60;71.30;;;;;;5132864;27;20641;-73
2022/05/15 10:14:40;;;;;;;1.38;0.63;;;25.60;70.40;;;;;;5133480;27;20181;-74
2022/05/15 10:17:07;;;;;;;2.53;0.57;;;25.70;69.90;;;;;;5109185;28;20181;-72
2022/05/15 10:19:47;;;;;;;2.25;0.90;;;25.20;69.10;;;;;;5112253;27;20281;-72
2022/05/15 10:22:44;;;;;;;3.97;0.90;;;24.30;70.60;;;;;;5123020;27;20217;-73
2022/05/15 10:25:16;;;;;;;1.33;0.88;;;23.60;73.30;;;;;;5123426;27;20197;-73
2022/05/15 10:27:47;;;;;;;1.55;0.90;;;23.90;74.80;;;;;;5132910;27;20215;-72
2022/05/15 10:30:22;;;;;;;2.00;0.68;;;24.80;74.50;;;;;;5114192;27;20210;-72
2022/05/15 10:32:58;;;;;;;2.28;1.10;;;24.90;73.60;;;;;;5129621;27;20672;-73
2022/05/15 10:36:03;;;;;;;1.90;1.00;;;24.10;73.10;;;;;;5133737;27;20188;-71
2022/05/15 10:38:34;;;;;;;1.27;0.70;;;23.70;73.60;;;;;;5132247;27;20334;-72
2022/05/15 10:41:16;;;;;;;2.40;1.23;;;24.30;74.70;;;;;;5132694;27;20204;-72
2022/05/15 10:44:09;;;;;;;4.35;0.90;;;24.40;74.00;;;;;;5132896;27;20213;-71
2022/05/15 10:46:49;;;;;;;1.77;0.80;;;24.40;72.70;;;;;;5132625;27;20602;-70
2022/05/15 10:49:47;;;;;;;2.30;1.00;;;23.80;73.30;;;;;;5132119;27;20257;-71
2022/05/15 10:52:34;;;;;;;1.55;1.00;;;24.00;73.50;;;;;;5104132;28;20325;-71
2022/05/15 10:58:49;;;;;;;1.88;1.30;;;24.10;74.30;;;;;;5131744;27;20263;-70
2022/05/15 11:01:24;;;;;;;2.03;1.08;;;24.30;72.90;;;;;;5132469;27;20216;-72
2022/05/15 11:04:21;;;;;;;3.05;2.35;;;24.50;72.60;;;;;;5132201;27;20704;-72
2022/05/15 11:06:52;;;;;;;5.28;3.42;;;24.70;72.70;;;;;;5113761;27;20696;-71
2022/05/15 11:09:32;;;;;;;5.00;1.38;;;24.90;72.10;;;;;;5131877;27;20211;-71
2022/05/15 11:12:08;;;;;;;2.08;1.05;;;25.00;71.50;;;;;;5132547;27;20211;-74
2022/05/15 11:14:51;;;;;;;3.42;2.05;;;24.80;70.80;;;;;;5132408;27;20545;-73
2022/05/15 11:17:39;;;;;;;1.35;1.00;;;24.90;70.90;;;;;;5132897;27;20224;-72
2022/05/15 11:20:16;;;;;;;1.20;1.00;;;25.10;71.20;;;;;;5131973;27;20212;-74
2022/05/15 11:22:49;;;;;;;3.47;1.58;;;25.00;71.10;;;;;;5119402;27;20197;-73
2022/05/15 11:25:27;;;;;;;3.80;1.10;;;25.00;71.50;;;;;;5132134;27;20621;-73
2022/05/15 11:27:58;;;;;;;1.95;1.23;;;24.80;71.00;;;;;;5113264;27;20211;-72
2022/05/15 11:30:34;;;;;;;2.22;1.08;;;25.10;71.30;;;;;;5113476;27;20200;-75
2022/05/15 11:33:08;;;;;;;2.25;1.02;;;25.20;71.20;;;;;;5128660;27;20571;-72
2022/05/15 11:35:37;;;;;;;2.10;1.70;;;25.40;70.20;;;;;;5131430;27;20667;-73
2022/05/15 11:38:11;;;;;;;3.42;1.52;;;25.30;70.50;;;;;;5076151;22;20225;-74
2022/05/15 11:40:51;;;;;;;3.78;2.80;;;25.30;70.80;;;;;;5049860;28;20960;-75
2022/05/15 11:43:26;;;;;;;4.47;1.10;;;25.50;70.40;;;;;;5049856;28;20234;-74
2022/05/15 11:45:57;;;;;;;2.88;2.25;;;25.00;70.20;;;;;;5055841;28;20290;-74
2022/05/15 11:48:31;;;;;;;1.60;0.90;;;25.10;70.10;;;;;;5060976;28;20298;-74
2022/05/15 11:51:04;;;;;;;2.10;1.00;;;25.10;69.50;;;;;;5047600;28;20588;-75
2022/05/15 11:53:35;;;;;;;1.35;0.70;;;24.70;69.50;;;;;;5040212;28;20224;-74
2022/05/15 11:56:21;;;;;;;3.97;1.50;;;24.10;70.50;;;;;;5071669;28;20175;-75
2022/05/15 11:59:01;;;;;;;2.97;1.30;;;24.50;72.80;;;;;;5070464;28;20719;-74
2022/05/15 12:01:36;;;;;;;1.65;0.95;;;24.70;71.70;;;;;;5053040;28;20206;-74
2022/05/15 12:04:41;;;;;;;2.88;0.98;;;24.30;71.00;;;;;;5071187;28;20198;-75
2022/05/15 12:07:07;;;;;;;2.25;1.00;;;23.80;72.30;;;;;;5070636;28;20213;-74
2022/05/15 12:09:41;;;;;;;4.28;3.03;;;23.50;72.00;;;;;;5070132;28;20199;-74
2022/05/15 12:12:27;;;;;;;2.78;1.08;;;23.70;73.50;;;;;;5071169;28;20241;-74
2022/05/15 12:15:18;;;;;;;2.05;1.10;;;23.60;73.10;;;;;;5059485;28;20257;-74
2022/05/15 12:17:49;;;;;;;3.00;1.00;;;23.70;74.00;;;;;;5053263;28;20677;-74
2022/05/15 12:20:22;;;;;;;2.10;1.48;;;23.80;73.20;;;;;;5070504;28;20191;-74
2022/05/15 12:22:54;;;;;;;3.70;1.77;;;24.10;73.60;;;;;;5057878;28;20264;-74
2022/05/15 12:25:26;;;;;;;1.48;0.90;;;24.10;73.40;;;;;;5052925;28;20703;-76
2022/05/15 12:30:50;;;;;;;1.85;1.63;;;23.80;73.50;;;;;;5061727;28;20214;-74
2022/05/15 12:33:24;;;;;;;1.60;0.93;;;23.20;74.90;;;;;;5053249;28;20207;-74
2022/05/15 12:35:50;;;;;;;3.50;2.47;;;23.20;75.00;;;;;;5036299;28;20207;-75
2022/05/15 12:38:22;;;;;;;3.40;1.10;;;23.30;75.20;;;;;;5036897;28;20215;-75
2022/05/15 12:41:00;;;;;;;4.13;1.75;;;23.30;75.50;;;;;;5038470;28;20219;-76
2022/05/15 12:43:32;;;;;;;2.90;1.50;;;23.40;73.60;;;;;;5062835;28;20693;-74
2022/05/15 12:45:59;;;;;;;2.22;1.08;;;23.10;73.80;;;;;;5073861;28;20210;-75
2022/05/15 12:48:25;;;;;;;2.35;1.23;;;23.20;74.90;;;;;;5063530;28;20226;-75
2022/05/15 12:51:05;;;;;;;1.45;0.93;;;23.30;74.40;;;;;;5030814;28;20212;-74
2022/05/15 12:53:37;;;;;;;4.68;2.72;;;23.00;74.50;;;;;;5045642;28;20705;-75
2022/05/15 12:56:18;;;;;;;2.85;1.17;;;23.20;75.30;;;;;;5060029;28;20561;-74
2022/05/15 12:58:49;;;;;;;1.55;0.80;;;22.90;74.20;;;;;;5072715;28;20687;-73
2022/05/15 13:01:16;;;;;;;1.17;0.80;;;22.80;74.20;;;;;;5067138;28;20580;-74
2022/05/15 13:03:43;;;;;;;3.17;1.40;;;22.70;74.30;;;;;;5053555;28;20210;-75
2022/05/15 13:06:08;;;;;;;1.50;1.20;;;23.00;74.80;;;;;;5051298;28;20214;-75
2022/05/15 13:08:50;;;;;;;5.45;3.15;;;23.10;74.90;;;;;;5055034;28;20250;-74
2022/05/15 13:11:28;;;;;;;3.58;1.20;;;23.10;75.80;;;;;;5074581;28;20175;-75
2022/05/15 13:13:57;;;;;;;3.92;1.17;;;23.10;75.50;;;;;;5033603;28;20219;-75
2022/05/15 13:16:27;;;;;;;3.05;1.40;;;23.10;75.50;;;;;;5037268;28;20204;-74
2022/05/15 13:18:53;;;;;;;1.63;0.75;;;23.20;75.80;;;;;;5054532;28;20207;-73
2022/05/15 13:21:38;;;;;;;5.97;1.63;;;23.10;74.70;;;;;;5069904;28;20909;-74
2022/05/15 13:24:06;;;;;;;2.85;0.90;;;22.80;74.70;;;;;;5061731;28;20737;-75